createdAt,value
2016-06-02T00:00:10.391Z,0
2016-06-02T00:01:09.441Z,0
2016-06-02T00:02:09.835Z,0
2016-06-02T00:03:09.744Z,0
2016-06-02T00:04:09.231Z,0
2016-06-02T00:05:09.234Z,0
2016-06-02T00:07:09.239Z,0
2016-06-02T00:08:10.335Z,0
2016-06-02T00:09:09.073Z,0
2016-06-02T00:10:11.544Z,0
2016-06-02T00:11:09.406Z,0
2016-06-02T00:12:10.080Z,0
2016-06-02T00:13:09.256Z,0
2016-06-02T00:14:09.211Z,0
2016-06-02T00:15:09.057Z,0
2016-06-02T00:16:09.231Z,0
2016-06-02T00:17:09.219Z,0
2016-06-02T00:18:09.065Z,0
2016-06-02T00:19:09.068Z,0
2016-06-02T00:20:09.211Z,0
2016-06-02T00:21:09.214Z,0
2016-06-02T00:22:09.217Z,0
2016-06-02T00:23:09.219Z,0
2016-06-02T00:24:09.206Z,0
2016-06-02T00:25:10.569Z,0
2016-06-02T00:26:09.211Z,0
2016-06-02T00:27:09.199Z,0
2016-06-02T00:28:09.202Z,0
2016-06-02T00:29:09.219Z,0
2016-06-02T00:30:09.223Z,0
2016-06-02T00:31:09.210Z,0
2016-06-02T00:32:09.212Z,0
2016-06-02T00:33:09.199Z,0
2016-06-02T00:34:09.046Z,0
2016-06-02T00:35:09.190Z,0
2016-06-02T00:36:09.207Z,0
2016-06-02T00:37:09.195Z,0
2016-06-02T00:38:09.198Z,0
2016-06-02T00:39:09.201Z,0
2016-06-02T00:40:09.453Z,0
2016-06-02T00:41:09.034Z,0
2016-06-02T00:42:09.208Z,0
2016-06-02T00:43:08.882Z,0
2016-06-02T00:44:09.214Z,0
2016-06-02T00:45:09.201Z,0
2016-06-02T00:46:09.187Z,0
2016-06-02T00:47:09.206Z,0
2016-06-02T00:48:09.225Z,0
2016-06-02T00:49:09.195Z,0
2016-06-02T00:50:09.042Z,0
2016-06-02T00:51:09.186Z,0
2016-06-02T00:52:08.892Z,0
2016-06-02T00:53:09.206Z,0
2016-06-02T00:54:09.194Z,0
2016-06-02T00:55:09.072Z,0
2016-06-02T00:56:09.027Z,0
2016-06-02T00:57:09.186Z,0
2016-06-02T00:58:09.032Z,0
2016-06-02T00:59:09.019Z,0
2016-06-02T01:00:10.382Z,0
2016-06-02T01:01:09.181Z,0
2016-06-02T01:02:10.090Z,0
2016-06-02T01:03:10.405Z,0
2016-06-02T01:04:10.189Z,0
2016-06-02T01:05:09.176Z,0
2016-06-02T01:06:09.163Z,0
2016-06-02T01:07:09.166Z,0
2016-06-02T01:08:09.168Z,0
2016-06-02T01:09:10.968Z,0
2016-06-02T01:10:10.784Z,0
2016-06-02T01:11:09.723Z,0
2016-06-02T01:12:09.179Z,0
2016-06-02T01:13:09.385Z,0
2016-06-02T01:14:09.513Z,0
2016-06-02T01:15:09.469Z,0
2016-06-02T01:16:10.503Z,0
2016-06-02T01:17:10.381Z,0
2016-06-02T01:18:09.649Z,0
2016-06-02T01:19:10.276Z,0
2016-06-02T01:20:08.998Z,0
2016-06-02T01:21:09.173Z,0
2016-06-02T01:22:09.081Z,0
2016-06-02T01:23:09.006Z,0
2016-06-02T01:24:09.181Z,0
2016-06-02T01:25:10.918Z,0
2016-06-02T01:26:09.889Z,0
2016-06-02T01:27:09.767Z,0
2016-06-02T01:28:09.504Z,0
2016-06-02T01:29:10.116Z,0
2016-06-02T01:30:09.009Z,0
2016-06-02T01:31:09.528Z,0
2016-06-02T01:32:09.202Z,0
2016-06-02T01:33:09.142Z,0
2016-06-02T01:34:09.145Z,0
2016-06-02T01:35:09.007Z,0
2016-06-02T01:36:09.150Z,0
2016-06-02T01:37:08.997Z,0
2016-06-02T01:38:09.140Z,0
2016-06-02T01:39:08.987Z,0
2016-06-02T01:40:10.255Z,0
2016-06-02T01:41:09.289Z,0
2016-06-02T01:42:09.135Z,0
2016-06-02T01:43:09.154Z,0
2016-06-02T01:44:09.141Z,0
2016-06-02T01:45:09.159Z,0
2016-06-02T01:46:09.193Z,0
2016-06-02T01:47:09.148Z,0
2016-06-02T01:48:09.151Z,0
2016-06-02T01:49:09.139Z,0
2016-06-02T01:50:09.141Z,0
2016-06-02T01:51:08.972Z,0
2016-06-02T01:52:09.131Z,0
2016-06-02T01:53:08.681Z,0
2016-06-02T01:54:09.136Z,0
2016-06-02T01:55:09.108Z,0
2016-06-02T01:56:09.125Z,0
2016-06-02T01:57:08.973Z,0
2016-06-02T01:58:08.818Z,0
2016-06-02T01:59:08.978Z,0
2016-06-02T02:00:09.121Z,0
2016-06-02T02:01:09.124Z,0
2016-06-02T02:02:08.969Z,0
2016-06-02T02:03:09.113Z,0
2016-06-02T02:04:08.960Z,0
2016-06-02T02:05:08.947Z,0
2016-06-02T02:06:08.949Z,0
2016-06-02T02:07:09.108Z,0
2016-06-02T02:08:09.110Z,0
2016-06-02T02:09:09.099Z,0
2016-06-02T02:10:09.867Z,0
2016-06-02T02:11:09.104Z,0
2016-06-02T02:12:09.091Z,0
2016-06-02T02:13:09.110Z,0
2016-06-02T02:14:09.096Z,0
2016-06-02T02:15:09.098Z,0
2016-06-02T02:16:08.929Z,0
2016-06-02T02:17:08.635Z,0
2016-06-02T02:18:09.107Z,0
2016-06-02T02:19:12.140Z,0
2016-06-02T02:20:09.300Z,0
2016-06-02T02:21:09.083Z,0
2016-06-02T02:22:08.931Z,0
2016-06-02T02:23:09.542Z,0
2016-06-02T02:24:09.279Z,0
2016-06-02T02:25:10.406Z,0
2016-06-02T02:26:09.082Z,0
2016-06-02T02:27:08.927Z,0
2016-06-02T02:28:09.743Z,0
2016-06-02T02:29:11.278Z,0
2016-06-02T02:30:09.170Z,0
2016-06-02T02:31:09.266Z,0
2016-06-02T02:32:09.113Z,0
2016-06-02T02:33:09.225Z,0
2016-06-02T02:34:09.728Z,0
2016-06-02T02:35:09.074Z,0
2016-06-02T02:36:10.155Z,0
2016-06-02T02:37:10.377Z,0
2016-06-02T02:38:09.646Z,0
2016-06-02T02:39:09.226Z,5
2016-06-02T02:40:09.056Z,5
2016-06-02T02:41:09.185Z,5
2016-06-02T02:42:08.890Z,5
2016-06-02T02:43:09.065Z,5
2016-06-02T02:44:10.301Z,5
2016-06-02T02:45:09.554Z,5
2016-06-02T02:46:08.885Z,5
2016-06-02T02:47:09.653Z,5
2016-06-02T02:48:09.266Z,5
2016-06-02T02:49:09.206Z,5
2016-06-02T02:50:09.052Z,10
2016-06-02T02:51:09.040Z,10
2016-06-02T02:52:09.042Z,10
2016-06-02T02:53:08.748Z,10
2016-06-02T02:54:09.047Z,10
2016-06-02T02:55:09.175Z,10
2016-06-02T02:56:09.037Z,15
2016-06-02T02:57:08.868Z,15
2016-06-02T02:58:09.027Z,15
2016-06-02T02:59:09.030Z,15
2016-06-02T03:00:08.876Z,15
2016-06-02T03:01:09.019Z,15
2016-06-02T03:02:09.022Z,20
2016-06-02T03:03:09.025Z,20
2016-06-02T03:04:08.872Z,20
2016-06-02T03:05:08.874Z,20
2016-06-02T03:06:08.860Z,20
2016-06-02T03:07:09.019Z,20
2016-06-02T03:08:09.022Z,25
2016-06-02T03:09:08.713Z,25
2016-06-02T03:10:09.341Z,25
2016-06-02T03:11:09.015Z,30
2016-06-02T03:12:08.862Z,35
2016-06-02T03:13:09.005Z,35
2016-06-02T03:14:08.852Z,40
2016-06-02T03:15:08.854Z,45
2016-06-02T03:16:09.013Z,45
2016-06-02T03:17:09.000Z,45
2016-06-02T03:18:09.003Z,50
2016-06-02T03:19:08.989Z,50
2016-06-02T03:20:09.008Z,55
2016-06-02T03:21:08.854Z,60
2016-06-02T03:22:08.998Z,60
2016-06-02T03:23:09.000Z,65
2016-06-02T03:24:09.003Z,65
2016-06-02T03:25:08.959Z,70
2016-06-02T03:26:08.992Z,75
2016-06-02T03:27:08.995Z,75
2016-06-02T03:28:08.998Z,85
2016-06-02T03:29:08.853Z,85
2016-06-02T03:30:08.741Z,85
2016-06-02T03:31:09.097Z,95
2016-06-02T03:32:09.094Z,95
2016-06-02T03:33:09.106Z,100
2016-06-02T03:34:09.134Z,105
2016-06-02T03:35:09.131Z,105
2016-06-02T03:36:09.143Z,110
2016-06-02T03:37:11.107Z,105
2016-06-02T03:38:10.447Z,105
2016-06-02T03:39:09.361Z,105
2016-06-02T03:40:13.569Z,105
2016-06-02T03:41:09.965Z,100
2016-06-02T03:42:09.268Z,105
2016-06-02T03:43:09.617Z,100
2016-06-02T03:44:09.168Z,95
2016-06-02T03:45:09.016Z,95
2016-06-02T03:46:09.176Z,95
2016-06-02T03:47:11.366Z,95
2016-06-02T03:48:09.012Z,95
2016-06-02T03:49:09.171Z,95
2016-06-02T03:50:10.065Z,95
2016-06-02T03:51:09.318Z,95
2016-06-02T03:52:09.524Z,100
2016-06-02T03:53:10.730Z,105
2016-06-02T03:54:09.546Z,110
2016-06-02T03:55:11.861Z,110
2016-06-02T03:56:09.161Z,115
2016-06-02T03:57:09.962Z,115
2016-06-02T03:58:09.652Z,120
2016-06-02T03:59:09.232Z,120
2016-06-02T04:00:09.064Z,125
2016-06-02T04:01:09.003Z,130
2016-06-02T04:02:09.788Z,140
2016-06-02T04:03:11.540Z,145
2016-06-02T04:04:09.481Z,150
2016-06-02T04:05:10.014Z,150
2016-06-02T04:06:09.470Z,155
2016-06-02T04:07:09.442Z,155
2016-06-02T04:08:09.617Z,160
2016-06-02T04:09:09.009Z,165
2016-06-02T04:10:10.466Z,165
2016-06-02T04:11:09.171Z,165
2016-06-02T04:12:09.158Z,165
2016-06-02T04:13:09.160Z,160
2016-06-02T04:14:09.007Z,160
2016-06-02T04:15:08.994Z,155
2016-06-02T04:16:09.153Z,155
2016-06-02T04:17:09.155Z,155
2016-06-02T04:18:09.002Z,155
2016-06-02T04:19:09.146Z,160
2016-06-02T04:20:09.148Z,170
2016-06-02T04:21:08.995Z,170
2016-06-02T04:22:09.013Z,175
2016-06-02T04:23:09.157Z,180
2016-06-02T04:24:09.003Z,185
2016-06-02T04:25:09.068Z,190
2016-06-02T04:26:09.149Z,200
2016-06-02T04:27:09.151Z,200
2016-06-02T04:28:08.842Z,210
2016-06-02T04:29:09.157Z,265
2016-06-02T04:30:09.145Z,325
2016-06-02T04:31:09.148Z,250
2016-06-02T04:32:08.993Z,245
2016-06-02T04:33:09.136Z,240
2016-06-02T04:34:09.155Z,240
2016-06-02T04:35:08.986Z,240
2016-06-02T04:36:09.003Z,235
2016-06-02T04:37:08.834Z,240
2016-06-02T04:38:09.150Z,245
2016-06-02T04:39:08.997Z,270
2016-06-02T04:40:09.436Z,330
2016-06-02T04:41:09.174Z,390
2016-06-02T04:42:09.005Z,415
2016-06-02T04:43:09.008Z,525
2016-06-02T04:44:09.150Z,510
2016-06-02T04:45:08.997Z,555
2016-06-02T04:46:09.155Z,505
2016-06-02T04:47:09.159Z,430
2016-06-02T04:48:09.005Z,420
2016-06-02T04:49:08.852Z,385
2016-06-02T04:50:09.010Z,400
2016-06-02T04:51:09.013Z,430
2016-06-02T04:52:09.015Z,380
2016-06-02T04:53:09.002Z,380
2016-06-02T04:54:09.177Z,360
2016-06-02T04:55:09.962Z,315
2016-06-02T04:56:12.792Z,265
2016-06-02T04:57:10.592Z,245
2016-06-02T04:58:09.188Z,245
2016-06-02T04:59:10.222Z,250
2016-06-02T05:00:09.990Z,265
2016-06-02T05:01:09.446Z,270
2016-06-02T05:02:09.246Z,285
2016-06-02T05:03:09.202Z,305
2016-06-02T05:04:08.907Z,335
2016-06-02T05:05:09.770Z,385
2016-06-02T05:06:09.631Z,680
2016-06-02T05:07:09.072Z,755
2016-06-02T05:08:09.277Z,765
2016-06-02T05:09:09.327Z,580
2016-06-02T05:10:10.127Z,555
2016-06-02T05:11:09.192Z,555
2016-06-02T05:12:09.241Z,575
2016-06-02T05:13:09.260Z,590
2016-06-02T05:14:09.106Z,590
2016-06-02T05:15:08.953Z,565
2016-06-02T05:16:09.268Z,515
2016-06-02T05:17:09.271Z,460
2016-06-02T05:18:09.273Z,410
2016-06-02T05:19:09.120Z,370
2016-06-02T05:20:09.138Z,340
2016-06-02T05:21:09.296Z,320
2016-06-02T05:22:09.300Z,310
2016-06-02T05:23:09.302Z,295
2016-06-02T05:24:09.321Z,265
2016-06-02T05:25:12.323Z,240
2016-06-02T05:26:09.185Z,215
2016-06-02T05:27:09.313Z,200
2016-06-02T05:28:09.332Z,190
2016-06-02T05:29:09.334Z,180
2016-06-02T05:30:09.352Z,175
2016-06-02T05:31:09.355Z,180
2016-06-02T05:32:09.201Z,195
2016-06-02T05:33:09.064Z,210
2016-06-02T05:34:09.379Z,225
2016-06-02T05:35:09.366Z,245
2016-06-02T05:36:09.384Z,265
2016-06-02T05:37:09.387Z,285
2016-06-02T05:38:09.390Z,305
2016-06-02T05:39:09.392Z,335
2016-06-02T05:40:09.661Z,350
2016-06-02T05:41:09.570Z,360
2016-06-02T05:42:09.259Z,375
2016-06-02T05:43:09.262Z,385
2016-06-02T05:44:09.280Z,405
2016-06-02T05:45:09.439Z,425
2016-06-02T05:46:09.113Z,465
2016-06-02T05:47:09.430Z,545
2016-06-02T05:48:09.447Z,640
2016-06-02T05:49:09.294Z,745
2016-06-02T05:50:09.453Z,805
2016-06-02T05:51:09.440Z,930
2016-06-02T05:52:09.318Z,770
2016-06-02T05:53:09.460Z,705
2016-06-02T05:54:09.464Z,635
2016-06-02T05:55:09.466Z,575
2016-06-02T05:56:09.172Z,550
2016-06-02T05:57:09.471Z,550
2016-06-02T05:58:09.334Z,565
2016-06-02T05:59:09.509Z,990
2016-06-02T06:00:09.496Z,595
2016-06-02T06:01:09.498Z,605
2016-06-02T06:02:09.517Z,650
2016-06-02T06:03:09.363Z,705
2016-06-02T06:04:09.522Z,760
2016-06-02T06:05:09.212Z,1120
2016-06-02T06:06:09.230Z,1490
2016-06-02T06:07:09.531Z,1515
2016-06-02T06:08:09.548Z,1530
2016-06-02T06:09:09.395Z,1525
2016-06-02T06:10:11.726Z,1415
2016-06-02T06:11:10.353Z,1360
2016-06-02T06:12:12.075Z,705
2016-06-02T06:13:11.172Z,660
2016-06-02T06:14:09.939Z,1290
2016-06-02T06:15:11.161Z,840
2016-06-02T06:16:11.008Z,820
2016-06-02T06:17:10.666Z,675
2016-06-02T06:18:09.653Z,635
2016-06-02T06:19:09.906Z,605
2016-06-02T06:20:10.112Z,590
2016-06-02T06:21:10.709Z,620
2016-06-02T06:22:11.304Z,655
2016-06-02T06:23:11.136Z,745
2016-06-02T06:24:13.498Z,840
2016-06-02T06:25:12.375Z,1350
2016-06-02T06:26:09.644Z,1880
2016-06-02T06:27:11.413Z,1305
2016-06-02T06:28:10.040Z,1955
2016-06-02T06:29:10.199Z,1910
2016-06-02T06:30:09.905Z,1240
2016-06-02T06:31:09.673Z,1855
2016-06-02T06:32:09.644Z,1880
2016-06-02T06:33:09.804Z,1875
2016-06-02T06:34:09.493Z,1860
2016-06-02T06:35:09.824Z,1835
2016-06-02T06:36:09.515Z,1825
2016-06-02T06:37:09.690Z,1805
2016-06-02T06:38:09.848Z,1815
2016-06-02T06:39:09.882Z,1830
2016-06-02T06:40:09.790Z,1845
2016-06-02T06:41:09.903Z,1845
2016-06-02T06:42:09.921Z,1890
2016-06-02T06:43:09.939Z,1925
2016-06-02T06:44:09.786Z,1975
2016-06-02T06:45:09.960Z,1975
2016-06-02T06:46:09.979Z,1940
2016-06-02T06:47:09.997Z,1935
2016-06-02T06:48:10.016Z,1945
2016-06-02T06:49:10.018Z,1990
2016-06-02T06:50:10.052Z,1995
2016-06-02T06:51:10.055Z,1985
2016-06-02T06:52:09.916Z,1990
2016-06-02T06:53:09.950Z,2000
2016-06-02T06:54:10.125Z,2025
2016-06-02T06:55:11.910Z,2040
2016-06-02T06:56:10.162Z,2035
2016-06-02T06:57:10.008Z,2045
2016-06-02T06:58:10.198Z,2075
2016-06-02T06:59:10.060Z,2115
2016-06-02T07:00:10.094Z,2130
2016-06-02T07:01:10.097Z,2135
2016-06-02T07:02:10.271Z,2105
2016-06-02T07:03:10.306Z,2070
2016-06-02T07:04:10.309Z,2020
2016-06-02T07:05:10.186Z,1970
2016-06-02T07:06:10.048Z,2010
2016-06-02T07:07:10.378Z,2125
2016-06-02T07:08:10.397Z,2135
2016-06-02T07:09:10.447Z,2240
2016-06-02T07:10:11.168Z,2275
2016-06-02T07:11:10.467Z,2255
2016-06-02T07:12:10.502Z,2205
2016-06-02T07:13:10.504Z,2180
2016-06-02T07:14:10.522Z,2185
2016-06-02T07:15:10.401Z,2155
2016-06-02T07:16:10.575Z,2160
2016-06-02T07:17:10.437Z,2235
2016-06-02T07:18:10.612Z,2325
2016-06-02T07:19:10.490Z,2320
2016-06-02T07:20:10.507Z,2235
2016-06-02T07:21:10.526Z,2175
2016-06-02T07:22:10.733Z,2120
2016-06-02T07:23:10.735Z,2135
2016-06-02T07:24:10.613Z,2240
2016-06-02T07:25:11.162Z,2330
2016-06-02T07:26:10.493Z,2445
2016-06-02T07:27:10.824Z,2460
2016-06-02T07:28:10.686Z,2465
2016-06-02T07:29:10.876Z,2450
2016-06-02T07:30:12.754Z,2370
2016-06-02T07:31:11.132Z,2265
2016-06-02T07:32:12.009Z,2250
2016-06-02T07:33:14.840Z,2280
2016-06-02T07:34:13.671Z,2310
2016-06-02T07:35:12.424Z,2365
2016-06-02T07:36:12.332Z,2100
2016-06-02T07:37:11.663Z,2295
2016-06-02T07:38:11.431Z,2275
2016-06-02T07:40:11.952Z,2385
2016-06-02T07:41:12.846Z,2440
2016-06-02T07:42:11.473Z,2450
2016-06-02T07:43:28.820Z,2460
2016-06-02T07:44:27.431Z,2460
2016-06-02T07:45:12.184Z,2505
2016-06-02T07:46:12.343Z,2555
2016-06-02T07:47:11.300Z,2530
2016-06-02T07:48:11.912Z,2485
2016-06-02T07:49:11.336Z,2400
2016-06-02T07:50:11.214Z,2270
2016-06-02T07:51:11.294Z,2100
2016-06-02T07:52:11.578Z,2080
2016-06-02T07:53:11.284Z,1425
2016-06-02T07:54:11.162Z,2215
2016-06-02T07:55:11.571Z,2130
2016-06-02T07:56:11.355Z,1240
2016-06-02T07:57:11.529Z,2200
2016-06-02T07:58:11.563Z,2255
2016-06-02T07:59:11.582Z,735
2016-06-02T08:00:11.600Z,2365
2016-06-02T08:01:11.634Z,705
2016-06-02T08:02:11.340Z,650
2016-06-02T08:03:11.513Z,710
2016-06-02T08:04:11.532Z,860
2016-06-02T08:05:11.707Z,2455
2016-06-02T08:06:11.443Z,2415
2016-06-02T08:07:11.760Z,2305
2016-06-02T08:08:11.777Z,1410
2016-06-02T08:09:11.654Z,1350
2016-06-02T08:10:12.408Z,2900
2016-06-02T08:11:11.535Z,3000
2016-06-02T08:12:11.709Z,3100
2016-06-02T08:13:11.885Z,3175
2016-06-02T08:14:11.903Z,3200
2016-06-02T08:15:11.920Z,3205
2016-06-02T08:16:11.939Z,3145
2016-06-02T08:17:11.833Z,3045
2016-06-02T08:18:12.008Z,2970
2016-06-02T08:19:12.010Z,2895
2016-06-02T08:20:12.029Z,2505
2016-06-02T08:21:11.906Z,2190
2016-06-02T08:22:12.081Z,2180
2016-06-02T08:23:12.114Z,2185
2016-06-02T08:24:16.274Z,2235
2016-06-02T08:25:12.433Z,2275
2016-06-02T08:26:12.186Z,2235
2016-06-02T08:27:12.203Z,2280
2016-06-02T08:28:12.222Z,790
2016-06-02T08:29:12.240Z,2360
2016-06-02T08:30:12.118Z,2365
2016-06-02T08:31:11.964Z,2305
2016-06-02T08:32:12.155Z,2055
2016-06-02T08:33:12.313Z,2330
2016-06-02T08:34:12.347Z,2265
2016-06-02T08:35:12.382Z,2205
2016-06-02T08:36:12.228Z,2120
2016-06-02T08:37:12.246Z,2095
2016-06-02T08:38:12.420Z,2075
2016-06-02T08:39:12.454Z,990
2016-06-02T08:40:12.020Z,1295
2016-06-02T08:41:12.584Z,840
2016-06-02T08:42:12.525Z,2125
2016-06-02T08:43:12.543Z,2275
2016-06-02T08:44:12.561Z,650
2016-06-02T08:45:12.439Z,655
2016-06-02T08:46:12.629Z,2185
2016-06-02T08:47:12.617Z,2020
2016-06-02T08:48:12.494Z,505
2016-06-02T08:49:12.841Z,575
2016-06-02T08:50:12.984Z,2295
2016-06-02T08:51:12.814Z,2205
2016-06-02T08:52:27.365Z,1930
2016-06-02T08:53:12.898Z,1290
2016-06-02T08:54:13.308Z,605
2016-06-02T08:55:14.982Z,595
2016-06-02T08:56:13.578Z,640
2016-06-02T08:57:12.643Z,640
2016-06-02T08:58:15.099Z,605
2016-06-02T08:59:13.555Z,635
2016-06-02T09:00:14.011Z,625
2016-06-02T09:01:15.530Z,580
2016-06-02T09:02:13.126Z,580
2016-06-02T09:03:55.802Z,565
2016-06-02T09:05:13.338Z,545
2016-06-02T09:06:13.449Z,490
2016-06-02T09:07:13.171Z,465
2016-06-02T09:08:12.814Z,445
2016-06-02T09:09:12.988Z,425
2016-06-02T09:10:12.726Z,405
2016-06-02T09:11:12.713Z,395
2016-06-02T09:12:13.028Z,390
2016-06-02T09:13:13.045Z,390
2016-06-02T09:14:12.892Z,385
2016-06-02T09:15:13.068Z,385
2016-06-02T09:16:13.070Z,385
2016-06-02T09:17:12.932Z,390
2016-06-02T09:18:12.950Z,395
2016-06-02T09:19:12.953Z,395
2016-06-02T09:20:12.987Z,400
2016-06-02T09:21:12.989Z,395
2016-06-02T09:22:12.993Z,390
2016-06-02T09:23:13.167Z,395
2016-06-02T09:24:13.029Z,390
2016-06-02T09:25:12.922Z,390
2016-06-02T09:26:13.205Z,390
2016-06-02T09:27:13.194Z,395
2016-06-02T09:28:13.056Z,395
2016-06-02T09:29:13.230Z,400
2016-06-02T09:30:13.077Z,410
2016-06-02T09:31:13.079Z,410
2016-06-02T09:32:13.113Z,410
2016-06-02T09:33:13.256Z,410
2016-06-02T09:34:13.258Z,410
2016-06-02T09:35:13.277Z,415
2016-06-02T09:36:13.280Z,410
2016-06-02T09:37:13.283Z,410
2016-06-02T09:38:13.301Z,410
2016-06-02T09:39:13.163Z,420
2016-06-02T09:40:13.743Z,415
2016-06-02T09:41:13.794Z,425
2016-06-02T09:42:13.327Z,425
2016-06-02T09:43:13.346Z,420
2016-06-02T09:44:13.364Z,415
2016-06-02T09:45:13.367Z,415
2016-06-02T09:46:13.228Z,420
2016-06-02T09:47:13.373Z,425
2016-06-02T09:48:13.390Z,430
2016-06-02T09:49:13.409Z,435
2016-06-02T09:50:13.412Z,430
2016-06-02T09:51:13.101Z,440
2016-06-02T09:52:13.261Z,455
2016-06-02T09:53:13.450Z,475
2016-06-02T09:54:13.454Z,495
2016-06-02T09:55:13.675Z,515
2016-06-02T09:56:13.459Z,520
2016-06-02T09:57:12.992Z,535
2016-06-02T09:58:13.480Z,550
2016-06-02T09:59:13.326Z,575
2016-06-02T10:00:13.345Z,595
2016-06-02T10:01:13.488Z,640
2016-06-02T10:02:13.366Z,670
2016-06-02T10:03:13.509Z,685
2016-06-02T10:04:13.511Z,690
2016-06-02T10:05:13.530Z,705
2016-06-02T10:06:13.533Z,720
2016-06-02T10:08:15.116Z,715
2016-06-02T10:09:14.743Z,720
2016-06-02T10:10:15.513Z,720
2016-06-02T10:11:42.952Z,720
2016-06-02T10:12:43.564Z,725
2016-06-02T10:13:13.457Z,725
2016-06-02T10:14:14.210Z,725
2016-06-02T10:15:14.213Z,730
2016-06-02T10:16:13.528Z,735
2016-06-02T10:17:15.781Z,750
2016-06-02T10:18:15.548Z,770
2016-06-02T10:19:14.802Z,780
2016-06-02T10:20:15.914Z,765
2016-06-02T10:21:28.354Z,755
2016-06-02T10:22:13.685Z,735
2016-06-02T10:23:14.626Z,720
2016-06-02T10:24:13.909Z,705
2016-06-02T10:25:13.787Z,685
2016-06-02T10:26:13.570Z,680
2016-06-02T10:27:13.746Z,675
2016-06-02T10:28:13.747Z,675
2016-06-02T10:29:13.767Z,665
2016-06-02T10:30:13.769Z,660
2016-06-02T10:31:13.772Z,645
2016-06-02T10:32:13.664Z,640
2016-06-02T10:33:13.808Z,640
2016-06-02T10:34:13.639Z,615
2016-06-02T10:35:13.517Z,610
2016-06-02T10:36:13.675Z,605
2016-06-02T10:37:13.850Z,585
2016-06-02T10:38:13.697Z,570
2016-06-02T10:39:13.699Z,560
2016-06-02T10:40:13.593Z,545
2016-06-02T10:41:13.767Z,545
2016-06-02T10:42:13.895Z,535
2016-06-02T10:43:13.898Z,530
2016-06-02T10:44:13.760Z,525
2016-06-02T10:45:13.762Z,545
2016-06-02T10:46:13.937Z,560
2016-06-02T10:47:13.799Z,575
2016-06-02T10:48:13.958Z,585
2016-06-02T10:49:13.960Z,600
2016-06-02T10:50:13.963Z,640
2016-06-02T10:51:13.982Z,650
2016-06-02T10:52:13.985Z,660
2016-06-02T10:53:14.003Z,710
2016-06-02T10:54:13.709Z,740
2016-06-02T10:55:15.039Z,775
2016-06-02T10:56:13.729Z,775
2016-06-02T10:57:14.044Z,760
2016-06-02T10:58:14.048Z,750
2016-06-02T10:59:14.050Z,715
2016-06-02T11:00:13.912Z,645
2016-06-02T11:01:13.914Z,595
2016-06-02T11:02:14.105Z,545
2016-06-02T11:03:13.795Z,505
2016-06-02T11:04:13.955Z,450
2016-06-02T11:05:14.113Z,360
2016-06-02T11:06:13.819Z,295
2016-06-02T11:07:14.134Z,280
2016-06-02T11:08:13.981Z,295
2016-06-02T11:09:14.186Z,325
2016-06-02T11:10:15.329Z,370
2016-06-02T11:11:14.019Z,405
2016-06-02T11:12:14.194Z,425
2016-06-02T11:13:14.196Z,440
2016-06-02T11:14:14.044Z,470
2016-06-02T11:15:14.046Z,480
2016-06-02T11:16:14.221Z,480
2016-06-02T11:17:14.068Z,490
2016-06-02T11:18:14.227Z,495
2016-06-02T11:19:14.120Z,510
2016-06-02T11:20:14.090Z,530
2016-06-02T11:21:14.109Z,545
2016-06-02T11:22:14.268Z,560
2016-06-02T11:23:14.131Z,550
2016-06-02T11:24:14.289Z,530
2016-06-02T11:25:15.323Z,520
2016-06-02T11:26:15.888Z,495
2016-06-02T11:27:15.672Z,420
2016-06-02T11:28:15.878Z,360
2016-06-02T11:29:29.912Z,350
2016-06-02T11:30:16.571Z,355
2016-06-02T11:31:14.683Z,355
2016-06-02T11:32:14.529Z,370
2016-06-02T11:33:14.454Z,375
2016-06-02T11:34:14.472Z,375
2016-06-02T11:35:16.491Z,385
2016-06-02T11:36:15.400Z,410
2016-06-02T11:37:14.230Z,440
2016-06-02T11:38:17.217Z,450
2016-06-02T11:39:16.158Z,470
2016-06-02T11:40:16.176Z,485
2016-06-02T11:41:15.475Z,530
2016-06-02T11:42:15.166Z,545
2016-06-02T11:43:14.794Z,580
2016-06-02T11:44:14.140Z,600
2016-06-02T11:45:14.361Z,620
2016-06-02T11:46:14.318Z,645
2016-06-02T11:47:14.491Z,645
2016-06-02T11:48:14.494Z,570
2016-06-02T11:49:14.496Z,440
2016-06-02T11:50:14.499Z,405
2016-06-02T11:51:14.518Z,425
2016-06-02T11:52:14.365Z,470
2016-06-02T11:53:14.383Z,535
2016-06-02T11:54:14.542Z,575
2016-06-02T11:55:15.123Z,585
2016-06-02T11:56:14.391Z,575
2016-06-02T11:57:14.550Z,570
2016-06-02T11:58:14.568Z,560
2016-06-02T11:59:14.430Z,535
2016-06-02T12:00:14.449Z,550
2016-06-02T12:01:14.592Z,595
2016-06-02T12:02:14.595Z,630
2016-06-02T12:03:14.628Z,655
2016-06-02T12:04:14.616Z,685
2016-06-02T12:05:14.618Z,710
2016-06-02T12:06:14.636Z,720
2016-06-02T12:07:14.639Z,720
2016-06-02T12:08:14.642Z,695
2016-06-02T12:09:14.489Z,645
2016-06-02T12:10:15.350Z,610
2016-06-02T12:11:14.665Z,570
2016-06-02T12:12:14.684Z,545
2016-06-02T12:13:14.546Z,510
2016-06-02T12:14:14.549Z,480
2016-06-02T12:15:14.552Z,465
2016-06-02T12:16:14.710Z,480
2016-06-02T12:17:14.588Z,490
2016-06-02T12:18:14.449Z,470
2016-06-02T12:19:14.734Z,470
2016-06-02T12:20:14.752Z,485
2016-06-02T12:21:14.599Z,495
2016-06-02T12:22:14.617Z,515
2016-06-02T12:23:14.620Z,530
2016-06-02T12:24:14.623Z,540
2016-06-02T12:25:14.673Z,560
2016-06-02T12:26:14.800Z,575
2016-06-02T12:27:14.803Z,600
2016-06-02T12:28:14.821Z,625
2016-06-02T12:29:14.823Z,635
2016-06-02T12:30:14.826Z,635
2016-06-02T12:31:14.844Z,630
2016-06-02T12:32:14.707Z,625
2016-06-02T12:33:14.865Z,615
2016-06-02T12:34:14.862Z,615
2016-06-02T12:35:14.908Z,615
2016-06-02T12:36:14.938Z,615
2016-06-02T12:37:14.984Z,600
2016-06-02T12:38:14.859Z,585
2016-06-02T12:39:15.055Z,575
2016-06-02T12:40:15.895Z,560
2016-06-02T12:41:15.080Z,545
2016-06-02T12:42:15.093Z,535
2016-06-02T12:43:15.137Z,515
2016-06-02T12:44:15.131Z,505
2016-06-02T12:45:18.153Z,495
2016-06-02T12:46:15.176Z,505
2016-06-02T12:47:16.649Z,525
2016-06-02T12:48:17.108Z,565
2016-06-02T12:49:15.739Z,595
2016-06-02T12:50:15.837Z,635
2016-06-02T12:51:16.153Z,630
2016-06-02T12:52:15.719Z,585
2016-06-02T12:53:15.426Z,545
2016-06-02T12:54:16.774Z,565
2016-06-02T12:55:19.090Z,610
2016-06-02T12:56:15.249Z,625
2016-06-02T12:57:30.502Z,640
2016-06-02T12:58:16.334Z,655
2016-06-02T13:00:15.199Z,655
2016-06-02T13:01:16.218Z,610
2016-06-02T13:02:15.454Z,530
2016-06-02T13:03:15.332Z,475
2016-06-02T13:04:15.335Z,435
2016-06-02T13:05:15.354Z,425
2016-06-02T13:06:15.028Z,390
2016-06-02T13:07:15.359Z,375
2016-06-02T13:08:15.206Z,385
2016-06-02T13:09:15.506Z,405
2016-06-02T13:10:15.477Z,420
2016-06-02T13:11:15.401Z,440
2016-06-02T13:12:15.404Z,450
2016-06-02T13:13:15.251Z,470
2016-06-02T13:14:15.254Z,485
2016-06-02T13:15:15.272Z,490
2016-06-02T13:16:15.431Z,490
2016-06-02T13:17:15.434Z,490
2016-06-02T13:18:15.295Z,490
2016-06-02T13:19:15.454Z,490
2016-06-02T13:20:15.456Z,495
2016-06-02T13:21:15.475Z,485
2016-06-02T13:22:15.494Z,490
2016-06-02T13:23:15.340Z,480
2016-06-02T13:24:15.514Z,470
2016-06-02T13:25:15.220Z,460
2016-06-02T13:26:15.347Z,445
2016-06-02T13:27:15.210Z,440
2016-06-02T13:28:15.213Z,435
2016-06-02T13:29:15.388Z,430
2016-06-02T13:30:15.546Z,425
2016-06-02T13:31:15.565Z,420
2016-06-02T13:32:15.255Z,420
2016-06-02T13:33:15.414Z,415
2016-06-02T13:34:15.573Z,415
2016-06-02T13:35:15.591Z,415
2016-06-02T13:36:15.579Z,420
2016-06-02T13:37:15.596Z,420
2016-06-02T13:38:15.615Z,425
2016-06-02T13:39:15.632Z,430
2016-06-02T13:40:15.480Z,420
2016-06-02T13:41:15.732Z,425
2016-06-02T13:42:15.329Z,440
2016-06-02T13:43:15.488Z,460
2016-06-02T13:44:15.646Z,475
2016-06-02T13:45:15.664Z,475
2016-06-02T13:46:15.668Z,475
2016-06-02T13:47:15.701Z,470
2016-06-02T13:48:15.548Z,410
2016-06-02T13:49:15.706Z,350
2016-06-02T13:50:15.709Z,335
2016-06-02T13:51:15.556Z,320
2016-06-02T13:52:15.575Z,305
2016-06-02T13:53:15.733Z,295
2016-06-02T13:54:15.752Z,295
2016-06-02T13:55:15.536Z,305
2016-06-02T13:56:15.460Z,325
2016-06-02T13:57:15.744Z,340
2016-06-02T13:58:15.763Z,360
2016-06-02T13:59:15.765Z,365